• Join FlightAware (Why Join?)
  • Login
  • US Flag 
07:28AM EDT


 

Airport Tracker/Info


-or-


 

Live Flight TrackerFlight Track Log ✈ UAL137 ✈ 02-May-2012 ✈ PGUM - RJBB / KIX

Flight Track Log - Related Links

Times and Time Zones

All times are in EDT time to prevent confusion due to time zone crossing. See the UAL137 flight status page for this flight to view local times or setup timezone preferences in your user account.

Time Position Orientation Groundspeed Altitude Reporting Facility
EDT Latitude Longitude Course Direction KTS MPH feet Rate Location/Type
05:16PM 13.5110 144.7829 37° Northeast  Level FlightAware Approximate
05:17PM 13.6151 144.7177 136° Southeast  Level FlightAware Approximate
05:18PM 13.5333 144.8000 334° Northwest 230 265 3,800  Level Guam Center
05:19PM 13.6000 144.7667 324° Northwest 280 322 7,500 3,420 Climbing Guam Center
05:20PM 13.6667 144.7167 339° North 300 345 10,800 3,240 Climbing Guam Center
05:21PM 13.7500 144.6833 330° Northwest 340 391 14,000 3,060 Climbing Guam Center
05:22PM 13.8333 144.6333 322° Northwest 360 414 17,000 2,880 Climbing Guam Center
05:23PM 13.9167 144.5667 334° Northwest 380 437 19,900 2,820 Climbing Guam Center
05:24PM 14.0167 144.5167 327° Northwest 380 437 22,700 2,520 Climbing Guam Center
05:25PM 14.1167 144.4500 316° Northwest 400 460 25,100 2,220 Climbing Guam Center
05:26PM 14.2000 144.3667 321° Northwest 410 472 27,200 1,980 Climbing Guam Center
05:27PM 14.3000 144.2833 339° North 420 483 29,100 1,740 Climbing Guam Center
05:28PM 14.3833 144.2500 337° Northwest 430 495 30,700 1,800 Climbing Guam Center
05:29PM 14.5000 144.2000 337° Northwest 440 506 32,800 2,040 Climbing Guam Center
05:30PM 14.6167 144.1500 334° Northwest 440 506 34,900 1,920 Climbing Guam Center
05:31PM 14.7167 144.1000 334° Northwest 430 495 36,700 1,680 Climbing Guam Center
05:32PM 14.8167 144.0500 325° Northwest 410 472 38,300 1,380 Climbing Guam Center
05:33PM 14.9333 143.9667 334° Northwest 410 472 39,500 840 Climbing Guam Center
05:34PM 15.0333 143.9167 338° Northwest 420 483 40,000 240 Climbing Guam Center
05:35PM 15.1500 143.8667 334° Northwest 420 483 40,000  Level Guam Center
05:57PM 17.2000 142.8167 331° Northwest 409 471 40,000  Level Oakland Oceanic (ODAPS)
06:04PM 18.1274 142.2863 331° Northwest 409 471 40,000  Level FlightAware Transoceanic
06:05PM 18.2276 142.2286 331° Northwest 409 471 40,000  Level FlightAware Transoceanic
06:06PM 18.3277 142.1709 331° Northwest 409 471 40,000  Level FlightAware Transoceanic
06:07PM 18.4279 142.1130 331° Northwest 409 471 40,000  Level FlightAware Transoceanic
06:08PM 18.5280 142.0552 331° Northwest 409 471 40,000  Level FlightAware Transoceanic
06:09PM 18.6281 141.9972 331° Northwest 409 471 40,000  Level FlightAware Transoceanic
06:10PM 18.7282 141.9392 331° Northwest 409 471 40,000  Level FlightAware Transoceanic
06:11PM 18.8282 141.8811 331° Northwest 409 471 40,000  Level FlightAware Transoceanic
06:12PM 18.9283 141.8230 331° Northwest 409 471 40,000  Level FlightAware Transoceanic
06:13PM 19.0283 141.7648 331° Northwest 409 471 40,000  Level FlightAware Transoceanic
06:14PM 19.1283 141.7065 331° Northwest 409 471 40,000  Level FlightAware Transoceanic
06:15PM 19.2283 141.6481 331° Northwest 409 471 40,000  Level FlightAware Transoceanic
06:16PM 19.3283 141.5897 331° Northwest 409 471 40,000  Level FlightAware Transoceanic
06:17PM 19.4282 141.5312 331° Northwest 409 471 40,000  Level FlightAware Transoceanic
06:18PM 19.5282 141.4726 331° Northwest 409 471 40,000  Level FlightAware Transoceanic
06:19PM 19.6281 141.4140 331° Northwest 409 471 40,000  Level FlightAware Transoceanic
06:20PM 19.7280 141.3553 331° Northwest 409 471 40,000  Level FlightAware Transoceanic
06:21PM 19.8279 141.2965 331° Northwest 409 471 40,000  Level FlightAware Transoceanic
06:22PM 19.9277 141.2376 331° Northwest 409 471 40,000  Level FlightAware Transoceanic
06:23PM 20.0276 141.1787 331° Northwest 409 471 40,000  Level FlightAware Transoceanic
06:24PM 20.1274 141.1197 331° Northwest 409 471 40,000  Level FlightAware Transoceanic
06:25PM 20.2272 141.0606 331° Northwest 409 471 40,000  Level FlightAware Transoceanic
06:26PM 20.3270 141.0014 331° Northwest 409 471 40,000  Level FlightAware Transoceanic
06:27PM 20.4268 140.9422 331° Northwest 409 471 40,000  Level FlightAware Transoceanic
06:28PM 20.5265 140.8828 331° Northwest 409 471 40,000  Level FlightAware Transoceanic
06:29PM 20.6262 140.8234 331° Northwest 409 471 40,000  Level FlightAware Transoceanic
06:30PM 20.7259 140.7640 331° Northwest 409 471 40,000  Level FlightAware Transoceanic
06:31PM 20.8256 140.7044 331° Northwest 409 471 40,000  Level FlightAware Transoceanic
06:32PM 20.9253 140.6448 334° Northwest 409 471 40,000  Level FlightAware Transoceanic
06:33PM 21.0295 140.5898 342° North 409 471 40,000  Level FlightAware Transoceanic
06:34PM 21.1473 140.5488 342° North 409 471 40,000  Level FlightAware Transoceanic
06:35PM 21.2651 140.5077 342° North 409 471 40,000  Level FlightAware Transoceanic
06:36PM 21.3829 140.4666 342° North 409 471 40,000  Level FlightAware Transoceanic
06:37PM 21.5007 140.4253 342° North 409 471 40,000  Level FlightAware Transoceanic
06:38PM 21.6185 140.3841 342° North 409 471 40,000  Level FlightAware Transoceanic
06:39PM 21.7362 140.3427 342° North 409 471 40,000  Level FlightAware Transoceanic
06:40PM 21.8540 140.3013 342° North 409 471 40,000  Level FlightAware Transoceanic
06:41PM 21.9718 140.2599 342° North 409 471 40,000  Level FlightAware Transoceanic
06:42PM 22.0895 140.2183 342° North 409 471 40,000  Level FlightAware Transoceanic
06:43PM 22.2072 140.1767 342° North 409 471 40,000  Level FlightAware Transoceanic
06:44PM 22.3249 140.1350 342° North 409 471 40,000  Level FlightAware Transoceanic
06:45PM 22.4426 140.0933 342° North 409 471 40,000  Level FlightAware Transoceanic
06:46PM 22.5603 140.0514 342° North 409 471 40,000  Level FlightAware Transoceanic
06:47PM 22.6780 140.0096 342° North 409 471 40,000  Level FlightAware Transoceanic
06:48PM 22.7957 139.9676 342° North 409 471 40,000  Level FlightAware Transoceanic
06:49PM 22.9134 139.9255 342° North 409 471 40,000  Level FlightAware Transoceanic
06:50PM 23.0310 139.8834 342° North 409 471 40,000  Level FlightAware Transoceanic
06:51PM 23.1487 139.8412 342° North 409 471 40,000  Level FlightAware Transoceanic
06:52PM 23.2663 139.7990 342° North 409 471 40,000  Level FlightAware Transoceanic
06:53PM 23.3839 139.7567 342° North 409 471 40,000  Level FlightAware Transoceanic
06:54PM 23.5015 139.7142 342° North 409 471 40,000  Level FlightAware Transoceanic
06:55PM 23.6191 139.6718 342° North 409 471 40,000  Level FlightAware Transoceanic
06:56PM 23.7367 139.6292 342° North 409 471 40,000  Level FlightAware Transoceanic
06:57PM 23.8543 139.5865 342° North 409 471 40,000  Level FlightAware Transoceanic
06:58PM 23.9718 139.5438 342° North 409 471 40,000  Level FlightAware Transoceanic
06:59PM 24.0894 139.5010 342° North 409 471 40,000  Level FlightAware Transoceanic
07:00PM 24.2069 139.4582 342° North 409 471 40,000  Level FlightAware Transoceanic
07:01PM 24.3245 139.4152 342° North 409 471 40,000  Level FlightAware Transoceanic
07:02PM 24.4420 139.3722 342° North 409 471 40,000  Level FlightAware Transoceanic
07:03PM 24.5595 139.3291 342° North 409 471 40,000  Level FlightAware Transoceanic
07:04PM 24.6770 139.2859 342° North 409 471 40,000  Level FlightAware Transoceanic
07:05PM 24.7944 139.2426 341° North 409 471 40,000  Level FlightAware Transoceanic
07:06PM 24.9119 139.1992 334° Northwest 409 471 40,000  Level FlightAware Transoceanic
07:07PM 25.0129 139.1453 341° North  Level FlightAware Approximate
07:08PM 25.1190 139.1045 341° North  Level FlightAware Approximate
07:09PM 25.2251 139.0637 341° North  Level FlightAware Approximate
07:10PM 25.3312 139.0228 341° North  Level FlightAware Approximate
07:11PM 25.4372 138.9818 341° North  Level FlightAware Approximate
07:12PM 25.5433 138.9408 341° North  Level FlightAware Approximate
07:13PM 25.6488 138.8998 341° North  Level FlightAware Approximate
07:14PM 25.7544 138.8588 341° North  Level FlightAware Approximate
07:15PM 25.8599 138.8178 341° North  Level FlightAware Approximate
07:16PM 25.9654 138.7766 341° North  Level FlightAware Approximate
07:17PM 26.0709 138.7354 341° North  Level FlightAware Approximate
07:18PM 26.1763 138.6941 341° North  Level FlightAware Approximate
07:19PM 26.2818 138.6528 341° North  Level FlightAware Approximate
07:20PM 26.3872 138.6113 341° North  Level FlightAware Approximate
07:21PM 26.4927 138.5698 341° North  Level FlightAware Approximate
07:22PM 26.5981 138.5282 341° North  Level FlightAware Approximate
07:23PM 26.7035 138.4865 341° North  Level FlightAware Approximate
07:24PM 26.8089 138.4448 341° North  Level FlightAware Approximate
07:25PM 26.9143 138.4030 340° North  Level FlightAware Approximate
07:26PM 27.0197 138.3611 340° North  Level FlightAware Approximate
07:27PM 27.1251 138.3191 340° North  Level FlightAware Approximate
07:28PM 27.2304 138.2770 340° North  Level FlightAware Approximate
07:29PM 27.3358 138.2349 340° North  Level FlightAware Approximate
07:30PM 27.4411 138.1927 340° North  Level FlightAware Approximate
07:31PM 27.5464 138.1504 340° North  Level FlightAware Approximate
07:32PM 27.6517 138.1080 340° North  Level FlightAware Approximate
07:33PM 27.7570 138.0655 340° North  Level FlightAware Approximate
07:34PM 27.8623 138.0230 340° North  Level FlightAware Approximate
07:35PM 27.9676 137.9803 340° North  Level FlightAware Approximate
07:36PM 28.0728 137.9376 340° North  Level FlightAware Approximate
07:37PM 28.1780 137.8948 340° North  Level FlightAware Approximate
07:38PM 28.2833 137.8520 340° North  Level FlightAware Approximate
07:39PM 28.3885 137.8090 340° North  Level FlightAware Approximate
07:40PM 28.4937 137.7659 340° North  Level FlightAware Approximate
07:41PM 28.5989 137.7228 340° North  Level FlightAware Approximate
07:42PM 28.7040 137.6796 340° North  Level FlightAware Approximate
07:43PM 28.8092 137.6363 340° North  Level FlightAware Approximate
07:44PM 28.9143 137.5929 340° North  Level FlightAware Approximate
07:45PM 29.0194 137.5494 340° North  Level FlightAware Approximate
07:46PM 29.1246 137.5058 340° North  Level FlightAware Approximate
07:47PM 29.2297 137.4622 340° North  Level FlightAware Approximate
07:48PM 29.3347 137.4184 340° North  Level FlightAware Approximate
07:49PM 29.4398 137.3746 340° North  Level FlightAware Approximate
07:50PM 29.5449 137.3306 340° North  Level FlightAware Approximate
07:51PM 29.6499 137.2866 340° North  Level FlightAware Approximate
07:52PM 29.7549 137.2425 340° North  Level FlightAware Approximate
07:53PM 29.8600 137.1983 340° North  Level FlightAware Approximate
07:54PM 29.9650 137.1540 338° Northwest  Level FlightAware Approximate
07:55PM 30.0688 137.1061 338° Northwest  Level FlightAware Approximate
07:56PM 30.1726 137.0582 338° Northwest  Level FlightAware Approximate
07:57PM 30.2764 137.0101 338° Northwest  Level FlightAware Approximate
07:58PM 30.3797 136.9622 338° Northwest  Level FlightAware Approximate
07:59PM 30.4830 136.9141 336° Northwest  Level FlightAware Approximate
08:00PM 30.5848 136.8622 336° Northwest  Level FlightAware Approximate
08:01PM 30.6866 136.8101 336° Northwest  Level FlightAware Approximate
08:02PM 30.7885 136.7579 336° Northwest  Level FlightAware Approximate
08:03PM 30.8902 136.7056 336° Northwest  Level FlightAware Approximate
08:04PM 30.9920 136.6531 336° Northwest  Level FlightAware Approximate
08:05PM 31.0938 136.6006 336° Northwest  Level FlightAware Approximate
08:06PM 31.1955 136.5479 336° Northwest  Level FlightAware Approximate
08:07PM 31.2972 136.4952 341° North  Level FlightAware Approximate
08:08PM 31.4022 136.4521 341° North  Level FlightAware Approximate
08:09PM 31.5072 136.4090 341° North  Level FlightAware Approximate
08:10PM 31.6122 136.3658 341° North  Level FlightAware Approximate
08:11PM 31.7172 136.3225 341° North  Level FlightAware Approximate
08:12PM 31.8222 136.2791 341° North  Level FlightAware Approximate
08:13PM 31.9271 136.2356 341° North  Level FlightAware Approximate
08:14PM 32.0320 136.1920 341° North  Level FlightAware Approximate
08:15PM 32.1370 136.1482 341° North  Level FlightAware Approximate
08:16PM 32.2419 136.1044 341° North  Level FlightAware Approximate
08:17PM 32.3467 136.0605 340° North  Level FlightAware Approximate
08:18PM 32.4516 136.0165 340° North  Level FlightAware Approximate
08:19PM 32.5565 135.9724 340° North  Level FlightAware Approximate
08:20PM 32.6613 135.9281 340° North  Level FlightAware Approximate
08:21PM 32.7661 135.8838 340° North  Level FlightAware Approximate
08:22PM 32.8709 135.8394 345° North  Level FlightAware Approximate
08:23PM 32.9771 135.8062 322° Northwest  Level FlightAware Approximate
08:24PM 33.0652 135.7251 341° North  Level FlightAware Approximate
08:25PM 33.1706 135.6826 297° West  Level FlightAware Approximate
08:26PM 33.2198 135.5681 319° Northwest  Level FlightAware Approximate
08:27PM 33.3031 135.4803 320° Northwest  Level FlightAware Approximate
08:28PM 33.3885 135.3949 319° Northwest  Level FlightAware Approximate
08:29PM 33.4730 135.3082 354° North  Level FlightAware Approximate
08:30PM 33.5837 135.2946 354° North  Level FlightAware Approximate
08:31PM 33.6944 135.2811 354° North  Level FlightAware Approximate
08:32PM 33.8051 135.2675 354° North  Level FlightAware Approximate
08:33PM 33.9157 135.2538 354° North  Level FlightAware Approximate
08:34PM 34.0264 135.2402 354° North  Level FlightAware Approximate
08:35PM 34.1371 135.2265 354° North  Level FlightAware Approximate
08:36PM 34.2478 135.2127 356° North  Level FlightAware Approximate
08:37PM 34.3579 135.2039 25° Northeast  Level FlightAware Approximate
08:38PM 34.4583 135.2620 206° Southwest  Level Estimated
08:39PM 34.3185 135.1811 24° Northeast  Level FlightAware Approximate
08:40PM 34.4167 135.2333 40° Northeast  Level FlightAware Approximate
08:41PM 34.5022 135.3197 220° Southwest  Level Estimated
08:42PM 34.4167 135.2333 40° Northeast  Level Estimated
08:43PM 34.5009 135.3185 220° Southwest  Level Estimated
08:44PM 34.4167 135.2333 40° Northeast  Level Estimated
08:45PM 34.5009 135.3185 220° Southwest  Level Estimated
08:46PM 34.4167 135.2333 220° Southwest  Level FlightAware Approximate